TimeEDT,TemperatureF,Dew PointF,Humidity,Sea Level PressureIn,VisibilityMPH,Wind Direction,Wind SpeedMPH,Gust SpeedMPH,PrecipitationIn,Events,Conditions,WindDirDegrees,DateUTC
12:54 AM,71.1,69.1,93,30.13,7.0,Calm,Calm,-,N/A,,Clear,0,2013-07-19 04:54:00
1:15 AM,71.6,69.8,94,30.22,6.0,Calm,Calm,-,N/A,,Scattered Clouds,0,2013-07-19 05:15:00
1:25 AM,71.6,69.8,94,30.22,5.0,Calm,Calm,-,N/A,,Mostly Cloudy,0,2013-07-19 05:25:00
1:34 AM,71.6,69.8,94,30.21,6.0,Calm,Calm,-,N/A,,Scattered Clouds,0,2013-07-19 05:34:00
1:54 AM,70.0,69.1,97,30.12,8.0,Calm,Calm,-,N/A,,Clear,0,2013-07-19 05:54:00
2:54 AM,69.1,68.0,96,30.10,3.0,Calm,Calm,-,N/A,,Scattered Clouds,0,2013-07-19 06:54:00
3:09 AM,69.8,69.8,100,30.19,2.5,Calm,Calm,-,N/A,,Mostly Cloudy,0,2013-07-19 07:09:00
3:20 AM,69.8,69.8,100,30.19,1.8,Calm,Calm,-,N/A,,Mostly Cloudy,0,2013-07-19 07:20:00
3:37 AM,69.8,68.0,94,30.18,1.2,Calm,Calm,-,N/A,,Overcast,0,2013-07-19 07:37:00
3:43 AM,69.8,68.0,94,30.18,2.0,Calm,Calm,-,N/A,,Mostly Cloudy,0,2013-07-19 07:43:00
3:51 AM,69.8,68.0,94,30.19,4.0,Calm,Calm,-,N/A,,Mostly Cloudy,0,2013-07-19 07:51:00
3:54 AM,69.1,68.0,96,30.10,4.0,Calm,Calm,-,N/A,,Mostly Cloudy,0,2013-07-19 07:54:00
4:06 AM,69.8,68.0,94,30.19,2.5,Calm,Calm,-,N/A,,Mostly Cloudy,0,2013-07-19 08:06:00
4:10 AM,69.8,68.0,94,30.19,1.2,Calm,Calm,-,N/A,,Overcast,0,2013-07-19 08:10:00
4:16 AM,69.8,68.0,94,30.18,0.8,Calm,Calm,-,N/A,,Overcast,0,2013-07-19 08:16:00
4:21 AM,69.8,68.0,94,30.19,1.5,Calm,Calm,-,N/A,,Overcast,0,2013-07-19 08:21:00
4:24 AM,69.8,68.0,94,30.19,3.0,Calm,Calm,-,N/A,,Overcast,0,2013-07-19 08:24:00
4:54 AM,69.1,68.0,96,30.09,2.0,Calm,Calm,-,N/A,,Overcast,0,2013-07-19 08:54:00
5:05 AM,68.0,68.0,100,30.18,1.2,Calm,Calm,-,N/A,,Overcast,0,2013-07-19 09:05:00
5:20 AM,68.0,66.2,94,30.18,0.5,Calm,Calm,-,N/A,Fog,Fog,0,2013-07-19 09:20:00
5:54 AM,66.9,66.9,100,30.09,0.5,Calm,Calm,-,N/A,Fog,Fog,0,2013-07-19 09:54:00
6:13 AM,66.2,66.2,100,30.18,0.5,Calm,Calm,-,N/A,Fog,Fog,0,2013-07-19 10:13:00
6:46 AM,66.2,66.2,100,30.19,0.2,Calm,Calm,-,N/A,Fog,Fog,0,2013-07-19 10:46:00
6:54 AM,66.9,66.9,100,30.11,0.2,Calm,Calm,-,N/A,Fog,Fog,0,2013-07-19 10:54:00
7:15 AM,66.2,66.2,100,30.19,0.2,Calm,Calm,-,N/A,Fog,Fog,0,2013-07-19 11:15:00
7:54 AM,68.0,66.9,96,30.12,0.2,Calm,Calm,-,N/A,Fog,Fog,0,2013-07-19 11:54:00
8:20 AM,68.0,68.0,100,30.21,0.5,Calm,Calm,-,N/A,Fog,Fog,0,2013-07-19 12:20:00
8:45 AM,69.8,68.0,94,30.21,1.2,Calm,Calm,-,N/A,,Overcast,0,2013-07-19 12:45:00
8:54 AM,69.1,69.1,100,30.13,1.8,Calm,Calm,-,N/A,,Overcast,0,2013-07-19 12:54:00
9:01 AM,69.8,68.0,94,30.21,2.5,Variable,3.5,-,N/A,,Overcast,0,2013-07-19 13:01:00
9:09 AM,69.8,68.0,94,30.21,3.0,Calm,Calm,-,N/A,,Overcast,0,2013-07-19 13:09:00
9:16 AM,69.8,69.8,100,30.21,3.0,NNW,3.5,-,N/A,,Overcast,330,2013-07-19 13:16:00
9:50 AM,73.4,69.8,88,30.21,5.0,Variable,3.5,-,N/A,,Overcast,0,2013-07-19 13:50:00
9:54 AM,73.0,69.1,87,30.13,6.0,Calm,Calm,-,N/A,,Overcast,0,2013-07-19 13:54:00
10:35 AM,73.4,69.8,88,30.22,5.0,WSW,3.5,-,N/A,,Haze,240,2013-07-19 14:35:00
10:54 AM,75.9,69.1,79,30.13,6.0,Calm,Calm,-,N/A,,Haze,0,2013-07-19 14:54:00
11:54 AM,81.0,69.1,67,30.12,10.0,North,4.6,-,N/A,,Partly Cloudy,350,2013-07-19 15:54:00
12:54 PM,82.9,66.9,58,30.10,10.0,Calm,Calm,-,N/A,,Partly Cloudy,0,2013-07-19 16:54:00
1:54 PM,82.9,66.0,56,30.07,10.0,Calm,Calm,-,N/A,,Partly Cloudy,0,2013-07-19 17:54:00
2:54 PM,84.0,66.9,56,30.04,10.0,Variable,4.6,-,N/A,,Mostly Cloudy,0,2013-07-19 18:54:00
3:54 PM,86.0,66.0,51,30.02,10.0,SSW,6.9,-,N/A,,Scattered Clouds,200,2013-07-19 19:54:00
4:54 PM,84.9,64.9,51,30.01,10.0,Calm,Calm,-,N/A,,Clear,0,2013-07-19 20:54:00
5:54 PM,82.9,69.1,63,30.01,10.0,SSE,9.2,-,N/A,,Overcast,150,2013-07-19 21:54:00
6:54 PM,77.0,66.9,71,30.02,10.0,SW,5.8,-,N/A,,Clear,230,2013-07-19 22:54:00
7:54 PM,75.9,69.1,79,30.03,10.0,South,5.8,-,N/A,,Clear,170,2013-07-19 23:54:00
8:54 PM,75.0,69.1,82,30.04,10.0,South,4.6,-,0.00,Rain,Light Rain,170,2013-07-20 00:54:00
9:54 PM,75.0,69.1,82,30.04,10.0,Calm,Calm,-,0.00,Rain,Light Rain,0,2013-07-20 01:54:00
10:54 PM,73.0,69.1,87,30.06,10.0,Calm,Calm,-,0.00,,Clear,0,2013-07-20 02:54:00
11:54 PM,73.0,69.1,87,30.05,10.0,Calm,Calm,-,N/A,,Clear,0,2013-07-20 03:54:00